sensor_id;sensor_type;location;lat;lon;timestamp;temperature;humidity
2212;DHT22;48849;48.758;9.158;2022-09-29T00:00:40;12.40;99.90
2212;DHT22;48849;48.758;9.158;2022-09-29T00:03:06;12.40;99.90
2212;DHT22;48849;48.758;9.158;2022-09-29T00:05:33;12.40;99.90
2212;DHT22;48849;48.758;9.158;2022-09-29T00:08:01;12.50;99.90
2212;DHT22;48849;48.758;9.158;2022-09-29T00:10:29;12.50;99.90
2212;DHT22;48849;48.758;9.158;2022-09-29T00:12:55;12.50;99.90
2212;DHT22;48849;48.758;9.158;2022-09-29T00:15:22;12.50;99.90
2212;DHT22;48849;48.758;9.158;2022-09-29T00:17:49;12.50;99.90
2212;DHT22;48849;48.758;9.158;2022-09-29T00:20:15;12.40;99.90
2212;DHT22;48849;48.758;9.158;2022-09-29T00:22:42;12.40;99.90
2212;DHT22;48849;48.758;9.158;2022-09-29T00:25:09;12.40;99.90
2212;DHT22;48849;48.758;9.158;2022-09-29T00:27:37;12.40;99.90
2212;DHT22;48849;48.758;9.158;2022-09-29T00:30:05;12.40;99.90
2212;DHT22;48849;48.758;9.158;2022-09-29T00:32:31;12.40;99.90
2212;DHT22;48849;48.758;9.158;2022-09-29T00:34:58;12.50;99.90
2212;DHT22;48849;48.758;9.158;2022-09-29T00:37:25;12.50;99.90
2212;DHT22;48849;48.758;9.158;2022-09-29T00:39:52;12.50;99.90
2212;DHT22;48849;48.758;9.158;2022-09-29T00:42:19;12.50;99.90
2212;DHT22;48849;48.758;9.158;2022-09-29T00:45:00;12.60;99.90
2212;DHT22;48849;48.758;9.158;2022-09-29T00:47:31;12.60;99.90
2212;DHT22;48849;48.758;9.158;2022-09-29T00:50:02;12.60;99.90
2212;DHT22;48849;48.758;9.158;2022-09-29T00:52:32;12.50;99.90
2212;DHT22;48849;48.758;9.158;2022-09-29T00:55:03;12.50;99.90
2212;DHT22;48849;48.758;9.158;2022-09-29T00:57:35;12.50;99.90
2212;DHT22;48849;48.758;9.158;2022-09-29T01:00:06;12.50;99.90
2212;DHT22;48849;48.758;9.158;2022-09-29T01:02:38;12.60;99.90
2212;DHT22;48849;48.758;9.158;2022-09-29T01:05:08;12.60;99.90
2212;DHT22;48849;48.758;9.158;2022-09-29T01:07:36;12.60;99.90
2212;DHT22;48849;48.758;9.158;2022-09-29T01:10:04;12.60;99.90
2212;DHT22;48849;48.758;9.158;2022-09-29T01:12:31;12.60;99.90
2212;DHT22;48849;48.758;9.158;2022-09-29T01:14:58;12.60;99.90
2212;DHT22;48849;48.758;9.158;2022-09-29T01:17:27;12.60;99.90
2212;DHT22;48849;48.758;9.158;2022-09-29T01:20:04;12.60;99.90
2212;DHT22;48849;48.758;9.158;2022-09-29T01:23:05;12.50;99.90
2212;DHT22;48849;48.758;9.158;2022-09-29T01:25:53;12.60;99.90
2212;DHT22;48849;48.758;9.158;2022-09-29T01:28:44;12.60;99.90
2212;DHT22;48849;48.758;9.158;2022-09-29T01:31:20;12.60;99.90
2212;DHT22;48849;48.758;9.158;2022-09-29T01:33:56;12.60;99.90
2212;DHT22;48849;48.758;9.158;2022-09-29T01:36:32;12.60;99.90
2212;DHT22;48849;48.758;9.158;2022-09-29T01:39:05;12.60;99.90
2212;DHT22;48849;48.758;9.158;2022-09-29T01:41:35;12.60;99.90
2212;DHT22;48849;48.758;9.158;2022-09-29T01:44:11;12.60;99.90
2212;DHT22;48849;48.758;9.158;2022-09-29T01:46:43;12.50;99.90
2212;DHT22;48849;48.758;9.158;2022-09-29T01:49:12;12.50;99.90
2212;DHT22;48849;48.758;9.158;2022-09-29T01:51:43;12.50;99.90
2212;DHT22;48849;48.758;9.158;2022-09-29T01:54:14;12.60;99.90
2212;DHT22;48849;48.758;9.158;2022-09-29T01:56:48;12.60;99.90
2212;DHT22;48849;48.758;9.158;2022-09-29T01:59:20;12.60;99.90
2212;DHT22;48849;48.758;9.158;2022-09-29T02:01:50;12.60;99.90
2212;DHT22;48849;48.758;9.158;2022-09-29T02:04:25;12.60;99.90
2212;DHT22;48849;48.758;9.158;2022-09-29T02:06:55;12.60;99.90
2212;DHT22;48849;48.758;9.158;2022-09-29T02:09:29;12.70;99.90
2212;DHT22;48849;48.758;9.158;2022-09-29T02:11:58;12.60;99.90
2212;DHT22;48849;48.758;9.158;2022-09-29T02:14:29;12.70;99.90
2212;DHT22;48849;48.758;9.158;2022-09-29T02:17:02;12.60;99.90
2212;DHT22;48849;48.758;9.158;2022-09-29T02:19:33;12.60;99.90
2212;DHT22;48849;48.758;9.158;2022-09-29T02:22:01;12.60;99.90
2212;DHT22;48849;48.758;9.158;2022-09-29T02:24:27;12.70;99.90
2212;DHT22;48849;48.758;9.158;2022-09-29T02:26:55;12.60;99.90
2212;DHT22;48849;48.758;9.158;2022-09-29T02:29:21;12.60;99.90
2212;DHT22;48849;48.758;9.158;2022-09-29T02:31:49;12.60;99.90
2212;DHT22;48849;48.758;9.158;2022-09-29T02:34:20;12.70;99.90
2212;DHT22;48849;48.758;9.158;2022-09-29T02:36:53;12.60;99.90
2212;DHT22;48849;48.758;9.158;2022-09-29T02:39:32;12.60;99.90
2212;DHT22;48849;48.758;9.158;2022-09-29T02:42:08;12.70;99.90
2212;DHT22;48849;48.758;9.158;2022-09-29T02:44:51;12.70;99.90
2212;DHT22;48849;48.758;9.158;2022-09-29T02:47:41;12.70;99.90
2212;DHT22;48849;48.758;9.158;2022-09-29T02:50:30;12.70;99.90
2212;DHT22;48849;48.758;9.158;2022-09-29T02:53:06;12.60;99.90
2212;DHT22;48849;48.758;9.158;2022-09-29T02:55:41;12.70;99.90
2212;DHT22;48849;48.758;9.158;2022-09-29T02:58:12;12.60;99.90
2212;DHT22;48849;48.758;9.158;2022-09-29T03:00:41;12.60;99.90
2212;DHT22;48849;48.758;9.158;2022-09-29T03:03:09;12.70;99.90
2212;DHT22;48849;48.758;9.158;2022-09-29T03:05:37;12.70;99.90
2212;DHT22;48849;48.758;9.158;2022-09-29T03:08:04;12.70;99.90
2212;DHT22;48849;48.758;9.158;2022-09-29T03:10:30;12.70;99.90
2212;DHT22;48849;48.758;9.158;2022-09-29T03:12:58;12.70;99.90
2212;DHT22;48849;48.758;9.158;2022-09-29T03:15:24;12.70;99.90
2212;DHT22;48849;48.758;9.158;2022-09-29T03:17:54;12.70;99.90
2212;DHT22;48849;48.758;9.158;2022-09-29T03:20:22;12.80;99.90
2212;DHT22;48849;48.758;9.158;2022-09-29T03:22:50;12.70;99.90
2212;DHT22;48849;48.758;9.158;2022-09-29T03:25:20;12.70;99.90
2212;DHT22;48849;48.758;9.158;2022-09-29T03:27:48;12.70;99.90
2212;DHT22;48849;48.758;9.158;2022-09-29T03:30:16;12.70;99.90
2212;DHT22;48849;48.758;9.158;2022-09-29T03:32:43;12.70;99.90
2212;DHT22;48849;48.758;9.158;2022-09-29T03:35:10;12.70;99.90
2212;DHT22;48849;48.758;9.158;2022-09-29T03:37:37;12.70;99.90
2212;DHT22;48849;48.758;9.158;2022-09-29T03:40:07;12.70;99.90
2212;DHT22;48849;48.758;9.158;2022-09-29T03:42:33;12.60;99.90
2212;DHT22;48849;48.758;9.158;2022-09-29T03:45:00;12.60;99.90
2212;DHT22;48849;48.758;9.158;2022-09-29T03:47:27;12.60;99.90
2212;DHT22;48849;48.758;9.158;2022-09-29T03:49:54;12.60;99.90
2212;DHT22;48849;48.758;9.158;2022-09-29T03:52:21;12.60;99.90
2212;DHT22;48849;48.758;9.158;2022-09-29T03:54:47;12.60;99.90
2212;DHT22;48849;48.758;9.158;2022-09-29T03:57:15;12.50;99.90
2212;DHT22;48849;48.758;9.158;2022-09-29T03:59:42;12.60;99.90
2212;DHT22;48849;48.758;9.158;2022-09-29T04:02:09;12.60;99.90
2212;DHT22;48849;48.758;9.158;2022-09-29T04:04:35;12.70;99.90
2212;DHT22;48849;48.758;9.158;2022-09-29T04:07:02;12.50;99.90
2212;DHT22;48849;48.758;9.158;2022-09-29T04:09:29;12.50;99.90
2212;DHT22;48849;48.758;9.158;2022-09-29T04:11:56;12.50;99.90
2212;DHT22;48849;48.758;9.158;2022-09-29T04:14:24;12.50;99.90
2212;DHT22;48849;48.758;9.158;2022-09-29T04:16:51;12.50;99.90
2212;DHT22;48849;48.758;9.158;2022-09-29T04:19:18;12.40;99.90
2212;DHT22;48849;48.758;9.158;2022-09-29T04:21:44;12.40;99.90
2212;DHT22;48849;48.758;9.158;2022-09-29T04:24:11;12.40;99.90
2212;DHT22;48849;48.758;9.158;2022-09-29T04:26:38;12.40;99.90
2212;DHT22;48849;48.758;9.158;2022-09-29T04:29:05;12.40;99.90
2212;DHT22;48849;48.758;9.158;2022-09-29T04:31:34;12.40;99.90
2212;DHT22;48849;48.758;9.158;2022-09-29T04:34:00;12.40;99.90
2212;DHT22;48849;48.758;9.158;2022-09-29T04:36:27;12.40;99.90
2212;DHT22;48849;48.758;9.158;2022-09-29T04:38:54;12.30;99.90
2212;DHT22;48849;48.758;9.158;2022-09-29T04:41:21;12.30;99.90
2212;DHT22;48849;48.758;9.158;2022-09-29T04:43:48;12.30;99.90
2212;DHT22;48849;48.758;9.158;2022-09-29T04:46:15;12.30;99.90
2212;DHT22;48849;48.758;9.158;2022-09-29T04:48:43;12.30;99.90
2212;DHT22;48849;48.758;9.158;2022-09-29T04:51:09;12.20;99.90
2212;DHT22;48849;48.758;9.158;2022-09-29T04:53:36;12.20;99.90
2212;DHT22;48849;48.758;9.158;2022-09-29T04:56:07;12.10;99.90
2212;DHT22;48849;48.758;9.158;2022-09-29T04:58:34;12.20;99.90
2212;DHT22;48849;48.758;9.158;2022-09-29T05:01:05;12.20;99.90
2212;DHT22;48849;48.758;9.158;2022-09-29T05:03:32;12.10;99.90
2212;DHT22;48849;48.758;9.158;2022-09-29T05:06:00;12.20;99.90
2212;DHT22;48849;48.758;9.158;2022-09-29T05:08:27;12.20;99.90
2212;DHT22;48849;48.758;9.158;2022-09-29T05:10:54;12.10;99.90
2212;DHT22;48849;48.758;9.158;2022-09-29T05:13:21;12.10;99.90
2212;DHT22;48849;48.758;9.158;2022-09-29T05:15:54;12.00;99.90
2212;DHT22;48849;48.758;9.158;2022-09-29T05:18:22;12.00;99.90
2212;DHT22;48849;48.758;9.158;2022-09-29T05:20:49;12.10;99.90
2212;DHT22;48849;48.758;9.158;2022-09-29T05:23:17;12.10;99.90
2212;DHT22;48849;48.758;9.158;2022-09-29T05:25:43;12.10;99.90
2212;DHT22;48849;48.758;9.158;2022-09-29T05:28:10;12.10;99.90
2212;DHT22;48849;48.758;9.158;2022-09-29T05:30:37;12.10;99.90
2212;DHT22;48849;48.758;9.158;2022-09-29T05:33:04;12.10;99.90
2212;DHT22;48849;48.758;9.158;2022-09-29T05:35:31;12.10;99.90
2212;DHT22;48849;48.758;9.158;2022-09-29T05:37:58;12.10;99.90
2212;DHT22;48849;48.758;9.158;2022-09-29T05:40:26;12.10;99.90
2212;DHT22;48849;48.758;9.158;2022-09-29T05:42:52;12.00;99.90
2212;DHT22;48849;48.758;9.158;2022-09-29T05:45:19;12.10;99.90
2212;DHT22;48849;48.758;9.158;2022-09-29T05:47:46;12.10;99.90
2212;DHT22;48849;48.758;9.158;2022-09-29T05:50:13;12.00;99.90
2212;DHT22;48849;48.758;9.158;2022-09-29T05:52:40;12.10;99.90
2212;DHT22;48849;48.758;9.158;2022-09-29T05:55:07;12.10;99.90
2212;DHT22;48849;48.758;9.158;2022-09-29T05:57:36;12.10;99.90
2212;DHT22;48849;48.758;9.158;2022-09-29T06:00:04;12.10;99.90
2212;DHT22;48849;48.758;9.158;2022-09-29T06:02:31;12.10;99.90
2212;DHT22;48849;48.758;9.158;2022-09-29T06:04:58;12.20;99.90
2212;DHT22;48849;48.758;9.158;2022-09-29T06:07:25;12.10;99.90
2212;DHT22;48849;48.758;9.158;2022-09-29T06:09:52;12.10;99.90
2212;DHT22;48849;48.758;9.158;2022-09-29T06:12:19;12.10;99.90
2212;DHT22;48849;48.758;9.158;2022-09-29T06:14:47;12.10;99.90
2212;DHT22;48849;48.758;9.158;2022-09-29T06:17:14;12.00;99.90
2212;DHT22;48849;48.758;9.158;2022-09-29T06:19:41;12.10;99.90
2212;DHT22;48849;48.758;9.158;2022-09-29T06:22:08;12.10;99.90
2212;DHT22;48849;48.758;9.158;2022-09-29T06:24:34;12.20;99.90
2212;DHT22;48849;48.758;9.158;2022-09-29T06:27:01;12.20;99.90
2212;DHT22;48849;48.758;9.158;2022-09-29T06:29:28;12.10;99.90
2212;DHT22;48849;48.758;9.158;2022-09-29T06:31:56;12.20;99.90
2212;DHT22;48849;48.758;9.158;2022-09-29T06:34:23;12.20;99.90
2212;DHT22;48849;48.758;9.158;2022-09-29T06:36:49;12.30;99.90
2212;DHT22;48849;48.758;9.158;2022-09-29T06:39:34;12.30;99.90
2212;DHT22;48849;48.758;9.158;2022-09-29T06:42:01;12.30;99.90
2212;DHT22;48849;48.758;9.158;2022-09-29T06:44:28;12.30;99.90
2212;DHT22;48849;48.758;9.158;2022-09-29T06:46:57;12.40;99.90
2212;DHT22;48849;48.758;9.158;2022-09-29T06:49:25;12.40;99.90
2212;DHT22;48849;48.758;9.158;2022-09-29T06:51:51;12.40;99.90
2212;DHT22;48849;48.758;9.158;2022-09-29T06:54:20;12.40;99.90
2212;DHT22;48849;48.758;9.158;2022-09-29T06:56:48;12.40;99.90
2212;DHT22;48849;48.758;9.158;2022-09-29T06:59:15;12.50;99.90
2212;DHT22;48849;48.758;9.158;2022-09-29T07:01:42;12.50;99.90
2212;DHT22;48849;48.758;9.158;2022-09-29T07:04:16;12.60;99.90
2212;DHT22;48849;48.758;9.158;2022-09-29T07:06:43;12.60;99.90
2212;DHT22;48849;48.758;9.158;2022-09-29T07:09:10;12.60;99.90
2212;DHT22;48849;48.758;9.158;2022-09-29T07:11:40;12.60;99.90
2212;DHT22;48849;48.758;9.158;2022-09-29T07:14:11;12.60;99.90
2212;DHT22;48849;48.758;9.158;2022-09-29T07:16:37;12.60;99.90
2212;DHT22;48849;48.758;9.158;2022-09-29T07:19:04;12.70;99.90
2212;DHT22;48849;48.758;9.158;2022-09-29T07:21:32;12.70;99.90
2212;DHT22;48849;48.758;9.158;2022-09-29T07:24:02;12.70;99.90
2212;DHT22;48849;48.758;9.158;2022-09-29T07:26:29;12.70;99.90
2212;DHT22;48849;48.758;9.158;2022-09-29T07:28:56;12.70;99.90
2212;DHT22;48849;48.758;9.158;2022-09-29T07:31:23;12.70;99.90
2212;DHT22;48849;48.758;9.158;2022-09-29T07:33:49;12.90;99.90
2212;DHT22;48849;48.758;9.158;2022-09-29T07:36:18;13.60;99.90
2212;DHT22;48849;48.758;9.158;2022-09-29T07:38:47;12.80;99.90
2212;DHT22;48849;48.758;9.158;2022-09-29T07:41:14;12.80;99.90
2212;DHT22;48849;48.758;9.158;2022-09-29T07:43:41;12.80;99.90
2212;DHT22;48849;48.758;9.158;2022-09-29T07:46:09;12.80;99.90
2212;DHT22;48849;48.758;9.158;2022-09-29T07:48:37;12.80;99.90
2212;DHT22;48849;48.758;9.158;2022-09-29T07:51:06;12.90;99.90
2212;DHT22;48849;48.758;9.158;2022-09-29T07:53:33;12.90;99.90
2212;DHT22;48849;48.758;9.158;2022-09-29T07:56:03;12.90;99.90
2212;DHT22;48849;48.758;9.158;2022-09-29T07:58:31;13.00;99.90
2212;DHT22;48849;48.758;9.158;2022-09-29T08:00:58;13.00;99.90
2212;DHT22;48849;48.758;9.158;2022-09-29T08:03:26;13.00;99.90
2212;DHT22;48849;48.758;9.158;2022-09-29T08:05:54;13.10;99.90
2212;DHT22;48849;48.758;9.158;2022-09-29T08:08:22;13.10;99.90
2212;DHT22;48849;48.758;9.158;2022-09-29T08:10:48;13.20;99.90
2212;DHT22;48849;48.758;9.158;2022-09-29T08:13:24;13.40;99.90
2212;DHT22;48849;48.758;9.158;2022-09-29T08:15:56;13.20;99.90
2212;DHT22;48849;48.758;9.158;2022-09-29T08:18:24;13.20;99.90
2212;DHT22;48849;48.758;9.158;2022-09-29T08:20:50;13.20;99.90
2212;DHT22;48849;48.758;9.158;2022-09-29T08:23:18;13.30;99.90
2212;DHT22;48849;48.758;9.158;2022-09-29T08:25:45;13.30;99.90
2212;DHT22;48849;48.758;9.158;2022-09-29T08:28:12;13.40;99.90
2212;DHT22;48849;48.758;9.158;2022-09-29T08:30:41;13.30;99.90
2212;DHT22;48849;48.758;9.158;2022-09-29T08:33:09;13.40;99.90
2212;DHT22;48849;48.758;9.158;2022-09-29T08:35:39;13.40;99.90
2212;DHT22;48849;48.758;9.158;2022-09-29T08:38:06;13.40;99.90
2212;DHT22;48849;48.758;9.158;2022-09-29T08:40:33;13.50;99.90
2212;DHT22;48849;48.758;9.158;2022-09-29T08:43:08;13.50;99.90
2212;DHT22;48849;48.758;9.158;2022-09-29T08:45:40;13.60;99.90
2212;DHT22;48849;48.758;9.158;2022-09-29T08:48:12;13.60;99.90
2212;DHT22;48849;48.758;9.158;2022-09-29T08:50:43;13.60;99.90
2212;DHT22;48849;48.758;9.158;2022-09-29T08:53:13;13.60;99.90
2212;DHT22;48849;48.758;9.158;2022-09-29T08:55:46;13.70;99.90
2212;DHT22;48849;48.758;9.158;2022-09-29T08:58:14;13.70;99.90
2212;DHT22;48849;48.758;9.158;2022-09-29T09:00:51;13.70;99.90
2212;DHT22;48849;48.758;9.158;2022-09-29T09:03:45;13.80;99.90
2212;DHT22;48849;48.758;9.158;2022-09-29T09:06:23;13.80;99.90
2212;DHT22;48849;48.758;9.158;2022-09-29T09:09:09;13.80;99.90
2212;DHT22;48849;48.758;9.158;2022-09-29T09:11:51;13.80;99.90
2212;DHT22;48849;48.758;9.158;2022-09-29T09:14:47;13.90;99.90
2212;DHT22;48849;48.758;9.158;2022-09-29T09:17:26;13.90;99.90
2212;DHT22;48849;48.758;9.158;2022-09-29T09:20:19;13.90;99.90
2212;DHT22;48849;48.758;9.158;2022-09-29T09:22:54;14.00;99.90
2212;DHT22;48849;48.758;9.158;2022-09-29T09:25:27;14.00;99.90
2212;DHT22;48849;48.758;9.158;2022-09-29T09:28:02;14.00;99.90
2212;DHT22;48849;48.758;9.158;2022-09-29T09:30:34;14.00;99.90
2212;DHT22;48849;48.758;9.158;2022-09-29T09:33:16;14.00;99.90
2212;DHT22;48849;48.758;9.158;2022-09-29T09:35:48;14.00;99.90
2212;DHT22;48849;48.758;9.158;2022-09-29T09:38:20;14.10;99.90
2212;DHT22;48849;48.758;9.158;2022-09-29T09:40:51;14.10;99.90
2212;DHT22;48849;48.758;9.158;2022-09-29T09:43:22;14.10;99.90
2212;DHT22;48849;48.758;9.158;2022-09-29T09:45:56;14.10;99.90
2212;DHT22;48849;48.758;9.158;2022-09-29T09:48:29;14.10;99.90
2212;DHT22;48849;48.758;9.158;2022-09-29T09:51:00;14.20;99.90
2212;DHT22;48849;48.758;9.158;2022-09-29T09:53:33;14.20;99.90
2212;DHT22;48849;48.758;9.158;2022-09-29T09:56:07;14.20;99.90
2212;DHT22;48849;48.758;9.158;2022-09-29T09:58:59;14.30;99.90
2212;DHT22;48849;48.758;9.158;2022-09-29T10:01:30;14.30;99.90
2212;DHT22;48849;48.758;9.158;2022-09-29T10:03:59;14.40;99.90
2212;DHT22;48849;48.758;9.158;2022-09-29T10:06:26;14.40;99.90
2212;DHT22;48849;48.758;9.158;2022-09-29T10:08:53;14.40;99.90
2212;DHT22;48849;48.758;9.158;2022-09-29T10:11:23;14.40;99.90
2212;DHT22;48849;48.758;9.158;2022-09-29T10:13:57;14.50;99.90
2212;DHT22;48849;48.758;9.158;2022-09-29T10:16:29;14.50;99.90
2212;DHT22;48849;48.758;9.158;2022-09-29T10:18:59;14.50;99.90
2212;DHT22;48849;48.758;9.158;2022-09-29T10:21:35;14.50;99.90
2212;DHT22;48849;48.758;9.158;2022-09-29T10:24:03;14.50;99.90
2212;DHT22;48849;48.758;9.158;2022-09-29T10:26:38;14.50;99.90
2212;DHT22;48849;48.758;9.158;2022-09-29T10:29:19;14.60;99.90
2212;DHT22;48849;48.758;9.158;2022-09-29T10:31:58;14.80;99.90
2212;DHT22;48849;48.758;9.158;2022-09-29T10:34:28;14.60;99.90
2212;DHT22;48849;48.758;9.158;2022-09-29T10:36:56;14.70;99.90
2212;DHT22;48849;48.758;9.158;2022-09-29T10:39:32;14.70;99.90
2212;DHT22;48849;48.758;9.158;2022-09-29T10:42:00;14.70;99.90
2212;DHT22;48849;48.758;9.158;2022-09-29T10:44:31;14.80;99.90
2212;DHT22;48849;48.758;9.158;2022-09-29T10:46:58;14.80;99.90
2212;DHT22;48849;48.758;9.158;2022-09-29T10:49:28;14.90;99.90
2212;DHT22;48849;48.758;9.158;2022-09-29T10:52:01;14.90;99.90
2212;DHT22;48849;48.758;9.158;2022-09-29T10:54:30;14.90;99.90
2212;DHT22;48849;48.758;9.158;2022-09-29T10:56:58;15.00;99.90
2212;DHT22;48849;48.758;9.158;2022-09-29T10:59:26;15.10;99.90
2212;DHT22;48849;48.758;9.158;2022-09-29T11:01:54;15.10;99.90
2212;DHT22;48849;48.758;9.158;2022-09-29T11:04:24;15.20;99.90
2212;DHT22;48849;48.758;9.158;2022-09-29T11:06:53;15.10;99.90
2212;DHT22;48849;48.758;9.158;2022-09-29T11:09:35;15.20;99.90
2212;DHT22;48849;48.758;9.158;2022-09-29T11:12:03;15.20;99.90
2212;DHT22;48849;48.758;9.158;2022-09-29T11:14:38;15.20;99.90
2212;DHT22;48849;48.758;9.158;2022-09-29T11:17:21;15.30;99.90
2212;DHT22;48849;48.758;9.158;2022-09-29T11:19:49;15.30;99.90
2212;DHT22;48849;48.758;9.158;2022-09-29T11:22:39;15.40;99.90
2212;DHT22;48849;48.758;9.158;2022-09-29T11:28:30;15.40;99.90
2212;DHT22;48849;48.758;9.158;2022-09-29T11:31:26;15.40;99.90
2212;DHT22;48849;48.758;9.158;2022-09-29T11:34:05;15.50;99.90
2212;DHT22;48849;48.758;9.158;2022-09-29T11:36:42;15.60;99.90
2212;DHT22;48849;48.758;9.158;2022-09-29T11:39:32;15.70;99.90
2212;DHT22;48849;48.758;9.158;2022-09-29T11:42:12;15.70;99.90
2212;DHT22;48849;48.758;9.158;2022-09-29T11:44:52;15.80;99.90
2212;DHT22;48849;48.758;9.158;2022-09-29T11:48:05;15.80;99.90
2212;DHT22;48849;48.758;9.158;2022-09-29T11:50:45;15.90;99.90
2212;DHT22;48849;48.758;9.158;2022-09-29T11:53:24;16.10;99.90
2212;DHT22;48849;48.758;9.158;2022-09-29T11:56:13;16.10;99.90
2212;DHT22;48849;48.758;9.158;2022-09-29T11:58:53;16.10;99.90
2212;DHT22;48849;48.758;9.158;2022-09-29T12:01:33;16.10;99.90
2212;DHT22;48849;48.758;9.158;2022-09-29T12:04:14;16.10;99.90
2212;DHT22;48849;48.758;9.158;2022-09-29T12:06:55;16.10;99.90
2212;DHT22;48849;48.758;9.158;2022-09-29T12:09:38;16.10;99.90
2212;DHT22;48849;48.758;9.158;2022-09-29T12:12:12;16.00;99.90
2212;DHT22;48849;48.758;9.158;2022-09-29T12:14:58;16.00;99.90
2212;DHT22;48849;48.758;9.158;2022-09-29T12:17:29;16.00;99.90
2212;DHT22;48849;48.758;9.158;2022-09-29T12:20:03;16.00;99.90
2212;DHT22;48849;48.758;9.158;2022-09-29T12:22:31;16.00;99.90
2212;DHT22;48849;48.758;9.158;2022-09-29T12:25:00;16.00;99.90
2212;DHT22;48849;48.758;9.158;2022-09-29T12:27:34;16.00;99.90
2212;DHT22;48849;48.758;9.158;2022-09-29T12:30:04;15.90;99.90
2212;DHT22;48849;48.758;9.158;2022-09-29T12:32:34;15.90;99.90
2212;DHT22;48849;48.758;9.158;2022-09-29T12:35:08;15.90;99.90
2212;DHT22;48849;48.758;9.158;2022-09-29T12:37:42;15.90;99.90
2212;DHT22;48849;48.758;9.158;2022-09-29T12:40:20;15.90;99.90
2212;DHT22;48849;48.758;9.158;2022-09-29T12:43:00;15.90;99.90
2212;DHT22;48849;48.758;9.158;2022-09-29T12:45:45;15.80;99.90
2212;DHT22;48849;48.758;9.158;2022-09-29T12:48:25;15.80;99.90
2212;DHT22;48849;48.758;9.158;2022-09-29T12:50:59;15.70;99.90
2212;DHT22;48849;48.758;9.158;2022-09-29T12:53:31;15.70;99.90
2212;DHT22;48849;48.758;9.158;2022-09-29T12:56:02;15.60;99.90
2212;DHT22;48849;48.758;9.158;2022-09-29T12:58:37;15.60;99.90
2212;DHT22;48849;48.758;9.158;2022-09-29T13:01:19;15.60;99.90
2212;DHT22;48849;48.758;9.158;2022-09-29T13:07:06;15.60;99.90
2212;DHT22;48849;48.758;9.158;2022-09-29T13:09:56;15.50;99.90
2212;DHT22;48849;48.758;9.158;2022-09-29T13:12:37;15.50;99.90
2212;DHT22;48849;48.758;9.158;2022-09-29T13:18:20;15.40;99.90
2212;DHT22;48849;48.758;9.158;2022-09-29T13:21:06;15.40;99.90
2212;DHT22;48849;48.758;9.158;2022-09-29T13:23:45;15.40;99.90
2212;DHT22;48849;48.758;9.158;2022-09-29T13:26:56;15.40;99.90
2212;DHT22;48849;48.758;9.158;2022-09-29T13:29:29;15.40;99.90
2212;DHT22;48849;48.758;9.158;2022-09-29T13:32:01;15.40;99.90
2212;DHT22;48849;48.758;9.158;2022-09-29T13:34:30;15.30;99.90
2212;DHT22;48849;48.758;9.158;2022-09-29T13:37:05;15.40;99.90
2212;DHT22;48849;48.758;9.158;2022-09-29T13:39:33;15.30;99.90
2212;DHT22;48849;48.758;9.158;2022-09-29T13:42:26;15.30;99.90
2212;DHT22;48849;48.758;9.158;2022-09-29T13:54:38;15.30;99.90
2212;DHT22;48849;48.758;9.158;2022-09-29T13:57:18;15.30;99.90
2212;DHT22;48849;48.758;9.158;2022-09-29T14:00:01;15.30;99.90
2212;DHT22;48849;48.758;9.158;2022-09-29T14:02:33;15.30;99.90
2212;DHT22;48849;48.758;9.158;2022-09-29T14:05:01;15.30;99.90
2212;DHT22;48849;48.758;9.158;2022-09-29T14:07:38;15.30;99.90
2212;DHT22;48849;48.758;9.158;2022-09-29T14:10:18;15.30;99.90
2212;DHT22;48849;48.758;9.158;2022-09-29T14:12:49;15.30;99.90
2212;DHT22;48849;48.758;9.158;2022-09-29T14:15:19;15.30;99.90
2212;DHT22;48849;48.758;9.158;2022-09-29T14:17:50;15.30;99.90
2212;DHT22;48849;48.758;9.158;2022-09-29T14:20:21;15.30;99.90
2212;DHT22;48849;48.758;9.158;2022-09-29T14:23:03;15.30;99.90
2212;DHT22;48849;48.758;9.158;2022-09-29T14:25:51;15.30;99.90
2212;DHT22;48849;48.758;9.158;2022-09-29T14:28:35;15.40;99.90
2212;DHT22;48849;48.758;9.158;2022-09-29T14:31:16;15.40;99.90
2212;DHT22;48849;48.758;9.158;2022-09-29T14:33:45;15.40;99.90
2212;DHT22;48849;48.758;9.158;2022-09-29T14:36:17;15.40;99.90
2212;DHT22;48849;48.758;9.158;2022-09-29T14:38:49;15.40;99.90
2212;DHT22;48849;48.758;9.158;2022-09-29T14:41:25;15.40;99.90
2212;DHT22;48849;48.758;9.158;2022-09-29T14:43:54;15.40;99.90
2212;DHT22;48849;48.758;9.158;2022-09-29T14:46:47;15.40;99.90
2212;DHT22;48849;48.758;9.158;2022-09-29T14:49:59;15.40;99.90
2212;DHT22;48849;48.758;9.158;2022-09-29T14:52:54;15.40;99.90
2212;DHT22;48849;48.758;9.158;2022-09-29T14:55:30;15.40;99.90
2212;DHT22;48849;48.758;9.158;2022-09-29T14:58:14;15.40;99.90
2212;DHT22;48849;48.758;9.158;2022-09-29T15:00:55;15.40;99.90
2212;DHT22;48849;48.758;9.158;2022-09-29T15:03:28;15.40;99.90
2212;DHT22;48849;48.758;9.158;2022-09-29T15:06:05;15.40;99.90
2212;DHT22;48849;48.758;9.158;2022-09-29T15:08:32;15.40;99.90
2212;DHT22;48849;48.758;9.158;2022-09-29T15:11:02;15.40;99.90
2212;DHT22;48849;48.758;9.158;2022-09-29T15:13:32;15.40;99.90
2212;DHT22;48849;48.758;9.158;2022-09-29T15:16:02;15.40;99.90
2212;DHT22;48849;48.758;9.158;2022-09-29T15:19:01;15.40;99.90
2212;DHT22;48849;48.758;9.158;2022-09-29T15:21:39;15.40;99.90
2212;DHT22;48849;48.758;9.158;2022-09-29T15:24:21;15.40;99.90
2212;DHT22;48849;48.758;9.158;2022-09-29T15:26:53;15.40;99.90
2212;DHT22;48849;48.758;9.158;2022-09-29T15:29:20;15.40;99.90
2212;DHT22;48849;48.758;9.158;2022-09-29T15:31:46;15.40;99.90
2212;DHT22;48849;48.758;9.158;2022-09-29T15:34:18;15.40;99.90
2212;DHT22;48849;48.758;9.158;2022-09-29T15:36:49;15.40;99.90
2212;DHT22;48849;48.758;9.158;2022-09-29T15:39:42;15.40;99.90
2212;DHT22;48849;48.758;9.158;2022-09-29T15:42:18;15.40;99.90
2212;DHT22;48849;48.758;9.158;2022-09-29T15:44:52;15.40;99.90
2212;DHT22;48849;48.758;9.158;2022-09-29T15:47:27;15.40;99.90
2212;DHT22;48849;48.758;9.158;2022-09-29T15:49:55;15.40;99.90
2212;DHT22;48849;48.758;9.158;2022-09-29T15:52:22;15.40;99.90
2212;DHT22;48849;48.758;9.158;2022-09-29T15:54:53;15.40;99.90
2212;DHT22;48849;48.758;9.158;2022-09-29T16:03:26;15.30;99.90
2212;DHT22;48849;48.758;9.158;2022-09-29T16:06:02;15.30;99.90
2212;DHT22;48849;48.758;9.158;2022-09-29T16:08:31;15.30;99.90
2212;DHT22;48849;48.758;9.158;2022-09-29T16:11:01;15.30;99.90
2212;DHT22;48849;48.758;9.158;2022-09-29T16:13:32;15.30;99.90
2212;DHT22;48849;48.758;9.158;2022-09-29T16:16:02;15.30;99.90
2212;DHT22;48849;48.758;9.158;2022-09-29T16:18:32;15.30;99.90
2212;DHT22;48849;48.758;9.158;2022-09-29T16:21:06;15.30;99.90
2212;DHT22;48849;48.758;9.158;2022-09-29T16:23:36;15.30;99.90
2212;DHT22;48849;48.758;9.158;2022-09-29T16:26:10;15.30;99.90
2212;DHT22;48849;48.758;9.158;2022-09-29T16:28:59;15.30;99.90
2212;DHT22;48849;48.758;9.158;2022-09-29T16:31:28;15.20;99.90
2212;DHT22;48849;48.758;9.158;2022-09-29T16:33:57;15.20;99.90
2212;DHT22;48849;48.758;9.158;2022-09-29T16:36:26;15.20;99.90
2212;DHT22;48849;48.758;9.158;2022-09-29T16:38:53;15.20;99.90
2212;DHT22;48849;48.758;9.158;2022-09-29T16:41:25;15.20;99.90